Terminal Aerodrome Forecast
Issued by NWS Chicago, IL

Home | Current Version | Previous Version | Text Only | Print | Product List | Glossary On
Versions: 1 2 3 4 5 6 7 8 9 10 11 12 13 14 15 16 17 18 19 20 21 22 23 24
182
FTUS43 KLOT 150521
TAFRFD
TAF
KRFD 150521Z 1506/1606 22004KT P6SM BKN025 OVC100
     FM151400 28012G18KT P6SM BKN025 OVC040
     FM152200 23007KT P6SM SCT025 OVC040=

USA.gov is the U.S. government's official web portal to all federal, state and local government web resources and services.